createdAt,value
2022-12-11T00:02:23.372Z,26.74
2022-12-11T00:04:53.348Z,26.88
2022-12-11T00:07:24.099Z,26.83
2022-12-11T00:09:55.400Z,26.81
2022-12-11T00:12:25.970Z,26.75
2022-12-11T00:14:56.502Z,26.53
2022-12-11T00:17:27.141Z,26.56
2022-12-11T00:19:57.450Z,26.42
2022-12-11T00:22:27.929Z,26.53
2022-12-11T00:24:58.151Z,26.53
2022-12-11T00:27:28.748Z,26.61
2022-12-11T00:29:58.804Z,26.35
2022-12-11T00:32:31.630Z,26.36
2022-12-11T00:35:05.495Z,26.38
2022-12-11T00:37:36.879Z,26.35
2022-12-11T00:40:07.357Z,26.52
2022-12-11T00:42:37.888Z,26.26
2022-12-11T00:45:08.638Z,26.16
2022-12-11T00:47:39.338Z,26.24
2022-12-11T00:50:10.116Z,26.09
2022-12-11T00:52:41.836Z,26.08
2022-12-11T00:55:12.715Z,26.20
2022-12-11T00:57:46.402Z,26.18
2022-12-11T01:00:16.624Z,25.83
2022-12-11T01:02:47.216Z,25.77
2022-12-11T01:05:17.912Z,25.57
2022-12-11T01:07:48.522Z,25.73
2022-12-11T01:10:28.147Z,25.76
2022-12-11T01:13:07.130Z,25.71
2022-12-11T01:15:43.031Z,26.05
2022-12-11T01:18:15.518Z,25.89
2022-12-11T01:20:45.548Z,25.74
2022-12-11T01:23:15.673Z,25.79
2022-12-11T01:25:46.445Z,25.78
2022-12-11T01:28:16.730Z,25.70
2022-12-11T01:30:47.605Z,25.82
2022-12-11T01:33:17.744Z,26.09
2022-12-11T01:35:48.351Z,26.07
2022-12-11T01:38:18.536Z,26.24
2022-12-11T01:40:50.627Z,26.36
2022-12-11T01:43:21.260Z,26.32
2022-12-11T01:45:51.817Z,26.56
2022-12-11T01:48:30.058Z,26.69
2022-12-11T01:51:04.123Z,26.72
2022-12-11T01:53:43.254Z,26.72
2022-12-11T01:56:13.927Z,26.41
2022-12-11T01:58:50.114Z,26.11
2022-12-11T02:01:29.664Z,26.17
2022-12-11T02:04:00.647Z,26.21
2022-12-11T02:06:33.814Z,26.56
2022-12-11T02:09:05.877Z,26.65
2022-12-11T02:11:52.250Z,26.73
2022-12-11T02:14:46.054Z,26.76
2022-12-11T02:17:31.718Z,26.73
2022-12-11T02:20:08.999Z,26.71
2022-12-11T02:23:16.689Z,26.59
2022-12-11T02:26:04.745Z,26.70
2022-12-11T02:28:50.157Z,26.70
2022-12-11T02:31:25.675Z,26.71
2022-12-11T02:34:21.858Z,26.90
2022-12-11T02:36:58.727Z,26.98
2022-12-11T02:39:31.099Z,26.91
2022-12-11T02:42:02.497Z,26.91
2022-12-11T02:44:36.337Z,26.78
2022-12-11T02:47:13.844Z,26.90
2022-12-11T02:49:48.188Z,26.96
2022-12-11T02:52:23.294Z,26.98
2022-12-11T02:55:01.174Z,26.87
2022-12-11T02:57:57.018Z,26.88
2022-12-11T03:00:27.464Z,26.84
2022-12-11T03:02:58.284Z,26.92
2022-12-11T03:05:29.156Z,27.00
2022-12-11T03:07:59.569Z,26.99
2022-12-11T03:10:30.163Z,27.05
2022-12-11T03:13:01.803Z,27.05
2022-12-11T03:16:10.545Z,27.14
2022-12-11T03:19:10.851Z,27.25
2022-12-11T03:21:48.556Z,27.21
2022-12-11T03:24:22.641Z,27.33
2022-12-11T03:27:01.100Z,27.29
2022-12-11T03:29:41.010Z,27.38
2022-12-11T03:32:16.136Z,27.44
2022-12-11T03:34:58.612Z,27.50
2022-12-11T03:37:37.532Z,27.44
2022-12-11T03:40:14.524Z,27.49
2022-12-11T03:42:48.772Z,27.61
2022-12-11T03:45:20.887Z,27.64
2022-12-11T03:47:52.561Z,27.67
2022-12-11T03:50:24.860Z,27.73
2022-12-11T03:52:56.594Z,27.82
2022-12-11T03:55:29.832Z,27.75
2022-12-11T03:58:00.340Z,27.74
2022-12-11T04:00:31.296Z,27.68
2022-12-11T04:03:14.457Z,27.67
2022-12-11T04:05:50.666Z,27.68
2022-12-11T04:08:22.292Z,27.56
2022-12-11T04:11:11.456Z,27.55
2022-12-11T04:13:43.291Z,27.36
2022-12-11T04:16:13.485Z,27.19
2022-12-11T04:19:02.230Z,27.07
2022-12-11T04:21:50.233Z,26.88
2022-12-11T04:24:20.893Z,26.72
2022-12-11T04:26:50.876Z,26.79
2022-12-11T04:29:24.461Z,26.71
2022-12-11T04:31:54.497Z,26.64
2022-12-11T04:34:24.957Z,26.43
2022-12-11T04:36:55.065Z,26.30
2022-12-11T04:39:25.476Z,26.30
2022-12-11T04:41:55.323Z,26.30
2022-12-11T04:44:25.854Z,26.39
2022-12-11T04:49:25.026Z,26.50
2022-12-11T04:51:55.530Z,26.36
2022-12-11T04:54:25.984Z,26.35
2022-12-11T04:56:56.496Z,26.49
2022-12-11T04:59:26.778Z,26.55
2022-12-11T05:01:57.380Z,26.52
2022-12-11T05:04:27.930Z,26.57
2022-12-11T05:09:28.314Z,26.44
2022-12-11T05:11:58.963Z,26.34
2022-12-11T05:14:35.717Z,26.59
2022-12-11T05:17:06.236Z,26.35
2022-12-11T05:19:36.296Z,26.08
2022-12-11T05:22:06.751Z,26.01
2022-12-11T05:24:36.825Z,25.92
2022-12-11T05:27:07.371Z,26.17
2022-12-11T05:29:37.602Z,26.16
2022-12-11T05:32:08.199Z,26.31
2022-12-11T05:34:38.263Z,26.55
2022-12-11T05:37:08.961Z,26.30
2022-12-11T05:39:39.918Z,26.14
2022-12-11T05:42:10.922Z,26.00
2022-12-11T05:44:40.981Z,26.41
2022-12-11T05:47:12.258Z,26.40
2022-12-11T05:49:42.361Z,26.58
2022-12-11T05:52:12.805Z,26.27
2022-12-11T05:54:42.294Z,26.10
2022-12-11T05:57:11.937Z,26.29
2022-12-11T05:59:42.453Z,26.50
2022-12-11T06:02:12.472Z,26.28
2022-12-11T06:04:43.034Z,26.17
2022-12-11T06:07:12.959Z,26.57
2022-12-11T06:09:43.424Z,26.34
2022-12-11T06:12:13.533Z,26.39
2022-12-11T06:14:44.085Z,26.58
2022-12-11T06:17:14.038Z,26.43
2022-12-11T06:19:44.650Z,26.18
2022-12-11T06:22:14.606Z,26.29
2022-12-11T06:24:44.428Z,26.40
2022-12-11T06:27:14.918Z,26.03
2022-12-11T06:29:45.005Z,25.88
2022-12-11T06:32:15.411Z,26.25
2022-12-11T06:34:45.372Z,26.36
2022-12-11T06:37:15.944Z,26.29
2022-12-11T06:39:48.053Z,26.00
2022-12-11T06:42:19.171Z,25.93
2022-12-11T06:44:52.202Z,25.82
2022-12-11T06:47:22.639Z,25.77
2022-12-11T06:49:52.473Z,25.78
2022-12-11T06:52:26.645Z,25.78
2022-12-11T06:54:57.162Z,25.83
2022-12-11T06:57:27.827Z,25.87
2022-12-11T06:59:57.802Z,26.02
2022-12-11T07:02:30.083Z,26.11
2022-12-11T07:05:00.336Z,25.94
2022-12-11T07:07:31.455Z,26.07
2022-12-11T07:10:07.585Z,26.07
2022-12-11T07:12:38.744Z,26.12
2022-12-11T07:15:09.642Z,26.03
2022-12-11T07:17:40.450Z,25.92
2022-12-11T07:20:11.178Z,26.00
2022-12-11T07:22:46.717Z,26.03
2022-12-11T07:25:17.263Z,26.04
2022-12-11T07:27:47.801Z,25.91
2022-12-11T07:30:17.880Z,25.75
2022-12-11T07:32:48.468Z,25.95
2022-12-11T07:35:18.613Z,25.84
2022-12-11T07:37:49.212Z,25.95
2022-12-11T07:40:19.948Z,25.85
2022-12-11T07:42:50.171Z,25.80
2022-12-11T07:45:21.105Z,25.83
2022-12-11T07:47:53.828Z,25.75
2022-12-11T07:50:27.377Z,25.69
2022-12-11T07:52:57.458Z,25.69
2022-12-11T07:55:28.071Z,25.60
2022-12-11T07:57:58.046Z,25.54
2022-12-11T08:00:28.444Z,25.55
2022-12-11T08:02:57.887Z,25.59
2022-12-11T08:05:27.805Z,25.59
2022-12-11T08:07:58.204Z,25.64
2022-12-11T08:10:28.859Z,25.49
2022-12-11T08:12:59.268Z,25.62
2022-12-11T08:15:28.771Z,25.65
2022-12-11T08:17:58.643Z,25.59
2022-12-11T08:20:28.772Z,25.58
2022-12-11T08:22:59.566Z,25.79
2022-12-11T08:25:29.667Z,25.82
2022-12-11T08:27:59.093Z,25.91
2022-12-11T08:30:29.773Z,25.92
2022-12-11T08:33:00.909Z,25.80
2022-12-11T08:35:31.227Z,25.95
2022-12-11T08:38:00.740Z,25.93
2022-12-11T08:40:30.685Z,25.96
2022-12-11T08:43:00.115Z,26.26
2022-12-11T08:45:30.443Z,26.26
2022-12-11T08:48:03.616Z,26.36
2022-12-11T08:50:34.268Z,26.36
2022-12-11T08:53:04.217Z,26.38
2022-12-11T08:55:35.642Z,26.16
2022-12-11T08:58:05.780Z,26.23
2022-12-11T09:00:36.381Z,26.25
2022-12-11T09:03:09.816Z,26.53
2022-12-11T09:05:42.616Z,26.24
2022-12-11T09:08:12.293Z,26.22
2022-12-11T09:10:41.818Z,26.20
2022-12-11T09:13:12.119Z,26.20
2022-12-11T09:15:42.965Z,26.27
2022-12-11T09:18:29.672Z,26.34
2022-12-11T09:21:04.406Z,26.69
2022-12-11T09:23:35.115Z,26.99
2022-12-11T09:26:10.222Z,26.97
2022-12-11T09:28:46.307Z,26.92
2022-12-11T09:31:26.635Z,27.18
2022-12-11T09:33:59.757Z,27.25
2022-12-11T09:36:30.847Z,27.84
2022-12-11T09:39:05.863Z,28.05
2022-12-11T09:41:40.380Z,28.34
2022-12-11T09:44:16.667Z,28.69
2022-12-11T09:46:48.256Z,28.97
2022-12-11T09:49:31.115Z,28.75
2022-12-11T09:52:28.282Z,29.12
2022-12-11T09:55:06.269Z,29.67
2022-12-11T09:57:57.810Z,30.18
2022-12-11T10:00:39.843Z,30.55
2022-12-11T10:03:42.034Z,30.97
2022-12-11T10:06:44.720Z,31.27
2022-12-11T10:09:38.001Z,31.83
2022-12-11T10:12:31.819Z,32.37
2022-12-11T10:15:43.516Z,32.50
2022-12-11T10:18:19.128Z,33.11
2022-12-11T10:20:52.249Z,33.02
2022-12-11T10:23:36.773Z,33.86
2022-12-11T10:26:17.745Z,34.44
2022-12-11T10:28:48.451Z,34.53
2022-12-11T10:31:47.163Z,35.05
2022-12-11T10:34:35.782Z,35.46
2022-12-11T10:37:06.201Z,35.93
2022-12-11T10:39:36.547Z,35.66
2022-12-11T10:42:20.618Z,36.00
2022-12-11T10:45:03.246Z,36.26
2022-12-11T10:47:35.206Z,36.75
2022-12-11T10:50:06.069Z,36.79
2022-12-11T10:52:46.670Z,36.35
2022-12-11T10:55:30.111Z,36.00
2022-12-11T10:58:04.238Z,37.17
2022-12-11T11:00:38.109Z,37.28
2022-12-11T11:03:22.637Z,37.10
2022-12-11T11:06:18.318Z,37.17
2022-12-11T11:08:55.623Z,37.49
2022-12-11T11:11:36.188Z,37.41
2022-12-11T11:14:16.263Z,36.88
2022-12-11T11:16:51.936Z,36.70
2022-12-11T11:19:33.712Z,36.43
2022-12-11T11:22:15.767Z,35.97
2022-12-11T11:25:00.364Z,34.17
2022-12-11T11:27:45.438Z,33.44
2022-12-11T11:30:29.304Z,32.99
2022-12-11T11:33:03.767Z,32.84
2022-12-11T11:35:34.619Z,32.98
2022-12-11T11:38:27.773Z,33.18
2022-12-11T11:41:31.958Z,34.13
2022-12-11T11:44:08.840Z,34.12
2022-12-11T11:46:56.117Z,34.13
2022-12-11T11:49:53.701Z,33.83
2022-12-11T11:52:32.095Z,34.64
2022-12-11T11:55:10.953Z,34.29
2022-12-11T11:57:54.814Z,34.75
2022-12-11T12:00:33.376Z,34.61
2022-12-11T12:03:12.577Z,34.78
2022-12-11T12:05:45.861Z,34.50
2022-12-11T12:08:45.360Z,34.97
2022-12-11T12:11:28.864Z,35.01
2022-12-11T12:14:35.903Z,35.59
2022-12-11T12:17:27.647Z,35.79
2022-12-11T12:20:19.468Z,35.91
2022-12-11T12:23:16.806Z,35.40
2022-12-11T12:25:58.726Z,35.17
2022-12-11T12:28:41.983Z,34.80
2022-12-11T12:31:47.623Z,35.54
2022-12-11T12:34:57.637Z,37.25
2022-12-11T12:37:36.984Z,37.53
2022-12-11T12:40:17.789Z,37.89
2022-12-11T12:42:58.661Z,38.51
2022-12-11T12:45:40.156Z,39.46
2022-12-11T12:48:11.885Z,40.23
2022-12-11T12:50:48.433Z,40.91
2022-12-11T12:53:23.654Z,41.24
2022-12-11T12:55:54.667Z,41.73
2022-12-11T12:58:53.254Z,41.93
2022-12-11T13:01:28.878Z,40.91
2022-12-11T13:04:20.769Z,41.16
2022-12-11T13:06:59.015Z,40.34
2022-12-11T13:09:30.352Z,41.14
2022-12-11T13:12:00.417Z,41.29
2022-12-11T13:14:34.946Z,40.90
2022-12-11T13:17:23.479Z,41.46
2022-12-11T13:20:16.681Z,41.59
2022-12-11T13:23:08.975Z,41.78
2022-12-11T13:25:58.615Z,41.56
2022-12-11T13:28:33.261Z,41.71
2022-12-11T13:31:18.355Z,42.06
2022-12-11T13:33:51.493Z,41.86
2022-12-11T13:36:24.751Z,42.45
2022-12-11T13:39:06.168Z,42.06
2022-12-11T13:41:39.461Z,42.55
2022-12-11T13:44:16.683Z,42.47
2022-12-11T13:46:47.291Z,43.17
2022-12-11T13:49:30.374Z,42.82
2022-12-11T13:52:02.267Z,42.46
2022-12-11T13:54:35.174Z,42.52
2022-12-11T13:57:05.562Z,41.41
2022-12-11T13:59:38.181Z,41.58
2022-12-11T14:02:21.566Z,42.12
2022-12-11T14:04:56.044Z,42.27
2022-12-11T14:07:36.118Z,42.78
2022-12-11T14:10:22.088Z,43.36
2022-12-11T14:13:01.106Z,41.77
2022-12-11T14:15:32.878Z,41.53
2022-12-11T14:18:03.524Z,41.95
2022-12-11T14:20:36.878Z,42.93
2022-12-11T14:23:10.623Z,42.58
2022-12-11T14:25:40.629Z,41.18
2022-12-11T14:28:19.570Z,39.26
2022-12-11T14:30:55.460Z,40.66
2022-12-11T14:33:29.998Z,39.47
2022-12-11T14:36:02.025Z,40.31
2022-12-11T14:39:01.682Z,40.45
2022-12-11T14:41:36.420Z,40.46
2022-12-11T14:44:09.483Z,39.84
2022-12-11T14:46:45.503Z,38.18
2022-12-11T14:49:41.428Z,38.33
2022-12-11T14:52:22.744Z,39.63
2022-12-11T14:55:02.982Z,39.23
2022-12-11T14:57:35.626Z,40.20
2022-12-11T15:00:06.774Z,40.72
2022-12-11T15:02:38.667Z,39.79
2022-12-11T15:05:19.430Z,40.13
2022-12-11T15:08:05.001Z,40.06
2022-12-11T15:10:56.470Z,39.08
2022-12-11T15:13:27.108Z,39.96
2022-12-11T15:15:57.830Z,39.71
2022-12-11T15:18:32.739Z,39.78
2022-12-11T15:21:10.518Z,40.89
2022-12-11T15:23:58.886Z,40.10
2022-12-11T15:26:38.615Z,39.69
2022-12-11T15:29:28.468Z,40.83
2022-12-11T15:32:20.949Z,41.77
2022-12-11T15:34:53.300Z,42.10
2022-12-11T15:37:26.401Z,42.10
2022-12-11T15:39:59.385Z,42.33
2022-12-11T15:42:34.761Z,42.67
2022-12-11T15:45:08.743Z,43.17
2022-12-11T15:47:38.863Z,44.13
2022-12-11T15:50:27.135Z,44.26
2022-12-11T15:53:26.114Z,44.48
2022-12-11T15:55:57.477Z,44.41
2022-12-11T15:58:29.181Z,42.78
2022-12-11T16:00:59.851Z,41.94
2022-12-11T16:03:30.041Z,41.81
2022-12-11T16:06:00.741Z,41.22
2022-12-11T16:08:30.948Z,40.72
2022-12-11T16:11:01.437Z,41.35
2022-12-11T16:13:31.911Z,42.57
2022-12-11T16:16:02.415Z,41.94
2022-12-11T16:18:33.016Z,42.22
2022-12-11T16:21:07.384Z,41.79
2022-12-11T16:23:37.440Z,41.81
2022-12-11T16:26:10.765Z,41.78
2022-12-11T16:28:41.105Z,43.18
2022-12-11T16:31:15.329Z,42.55
2022-12-11T16:33:48.511Z,42.34
2022-12-11T16:36:21.066Z,42.14
2022-12-11T16:38:53.979Z,43.32
2022-12-11T16:41:25.275Z,42.29
2022-12-11T16:43:56.059Z,43.31
2022-12-11T16:46:27.071Z,41.54
2022-12-11T16:48:58.046Z,41.46
2022-12-11T16:51:28.521Z,42.28
2022-12-11T16:53:58.656Z,40.20
2022-12-11T16:56:28.633Z,41.42
2022-12-11T16:58:59.164Z,41.22
2022-12-11T17:01:29.890Z,41.32
2022-12-11T17:04:00.492Z,40.49
2022-12-11T17:06:30.502Z,40.22
2022-12-11T17:09:00.319Z,40.03
2022-12-11T17:11:30.872Z,40.06
2022-12-11T17:14:01.939Z,40.04
2022-12-11T17:16:33.524Z,39.73
2022-12-11T17:19:04.564Z,40.00
2022-12-11T17:21:35.212Z,39.58
2022-12-11T17:24:07.317Z,40.08
2022-12-11T17:26:37.944Z,40.35
2022-12-11T17:29:08.056Z,40.21
2022-12-11T17:31:38.764Z,39.61
2022-12-11T17:34:09.101Z,40.25
2022-12-11T17:36:39.535Z,40.42
2022-12-11T17:39:09.621Z,41.96
2022-12-11T17:41:40.388Z,42.31
2022-12-11T17:44:11.736Z,42.85
2022-12-11T17:46:42.224Z,43.52
2022-12-11T17:49:12.429Z,44.10
2022-12-11T17:51:42.930Z,44.29
2022-12-11T17:54:13.639Z,44.45
2022-12-11T17:56:44.117Z,43.33
2022-12-11T17:59:14.250Z,43.45
2022-12-11T18:01:44.738Z,43.17
2022-12-11T18:04:17.784Z,42.67
2022-12-11T18:06:48.405Z,43.22
2022-12-11T18:09:20.737Z,42.18
2022-12-11T18:11:51.187Z,41.81
2022-12-11T18:14:24.381Z,40.57
2022-12-11T18:16:54.855Z,39.43
2022-12-11T18:19:26.517Z,39.39
2022-12-11T18:21:57.298Z,39.42
2022-12-11T18:24:32.802Z,39.62
2022-12-11T18:27:03.760Z,39.87
2022-12-11T18:29:33.694Z,40.03
2022-12-11T18:32:03.591Z,39.86
2022-12-11T18:34:34.627Z,40.29
2022-12-11T18:37:04.587Z,40.01
2022-12-11T18:39:34.442Z,39.94
2022-12-11T18:42:31.585Z,39.33
2022-12-11T18:44:55.137Z,39.55
2022-12-11T18:47:25.641Z,38.97
2022-12-11T18:50:02.471Z,40.62
2022-12-11T18:52:36.750Z,39.76
2022-12-11T18:55:07.545Z,39.46
2022-12-11T18:57:37.861Z,39.10
2022-12-11T19:00:10.013Z,38.99
2022-12-11T19:02:40.373Z,39.31
2022-12-11T19:05:11.799Z,39.25
2022-12-11T19:07:42.368Z,39.09
2022-12-11T19:10:12.588Z,39.29
2022-12-11T19:12:44.073Z,39.12
2022-12-11T19:15:15.776Z,39.88
2022-12-11T19:17:47.818Z,39.34
2022-12-11T19:20:47.519Z,39.18
2022-12-11T19:23:09.300Z,38.16
2022-12-11T19:25:50.162Z,38.19
2022-12-11T19:28:20.583Z,38.20
2022-12-11T19:30:51.883Z,38.29
2022-12-11T19:33:22.309Z,38.23
2022-12-11T19:36:06.326Z,37.38
2022-12-11T19:38:37.555Z,37.62
2022-12-11T19:41:09.403Z,38.00
2022-12-11T19:43:40.201Z,37.84
2022-12-11T19:46:11.551Z,37.86
2022-12-11T19:48:42.956Z,37.18
2022-12-11T19:51:16.909Z,36.58
2022-12-11T19:53:50.225Z,36.91
2022-12-11T19:56:24.027Z,36.63
2022-12-11T19:58:54.650Z,36.38
2022-12-11T20:01:32.201Z,36.11
2022-12-11T20:04:08.866Z,35.96
2022-12-11T20:06:44.073Z,36.36
2022-12-11T20:09:15.188Z,35.96
2022-12-11T20:11:47.135Z,36.04
2022-12-11T20:14:24.674Z,35.92
2022-12-11T20:17:12.089Z,36.32
2022-12-11T20:19:43.197Z,36.77
2022-12-11T20:22:13.360Z,36.48
2022-12-11T20:24:43.732Z,36.35
2022-12-11T20:27:13.679Z,37.10
2022-12-11T20:29:44.113Z,37.13
2022-12-11T20:32:14.229Z,36.99
2022-12-11T20:34:44.717Z,36.48
2022-12-11T20:37:14.461Z,36.52
2022-12-11T20:39:44.961Z,36.73
2022-12-11T20:42:15.126Z,37.07
2022-12-11T20:44:49.284Z,37.25
2022-12-11T20:47:24.112Z,36.95
2022-12-11T20:49:54.529Z,36.21
2022-12-11T20:52:24.415Z,36.28
2022-12-11T20:54:54.886Z,36.21
2022-12-11T20:57:24.935Z,36.03
2022-12-11T20:59:55.336Z,35.92
2022-12-11T21:02:25.561Z,35.77
2022-12-11T21:04:55.891Z,35.45
2022-12-11T21:07:26.907Z,35.34
2022-12-11T21:09:57.281Z,35.28
2022-12-11T21:12:31.567Z,35.28
2022-12-11T21:15:02.263Z,35.35
2022-12-11T21:17:32.251Z,35.59
2022-12-11T21:20:02.683Z,35.92
2022-12-11T21:22:32.453Z,35.39
2022-12-11T21:25:03.053Z,34.92
2022-12-11T21:27:35.948Z,35.51
2022-12-11T21:30:07.470Z,35.01
2022-12-11T21:32:37.523Z,34.83
2022-12-11T21:35:08.414Z,34.57
2022-12-11T21:37:43.008Z,34.04
2022-12-11T21:40:13.725Z,33.56
2022-12-11T21:42:43.914Z,33.26
2022-12-11T21:45:52.079Z,33.00
2022-12-11T21:48:04.438Z,32.74
2022-12-11T21:50:34.814Z,33.04
2022-12-11T21:53:05.003Z,32.57
2022-12-11T21:55:36.293Z,32.50
2022-12-11T21:58:06.338Z,31.94
2022-12-11T22:00:40.834Z,32.26
2022-12-11T22:03:12.029Z,31.50
2022-12-11T22:05:42.437Z,31.40
2022-12-11T22:08:12.531Z,31.54
2022-12-11T22:10:43.060Z,31.50
2022-12-11T22:13:13.127Z,31.49
2022-12-11T22:15:43.542Z,31.08
2022-12-11T22:18:14.128Z,30.88
2022-12-11T22:20:45.000Z,30.68
2022-12-11T22:23:15.410Z,30.64
2022-12-11T22:25:51.316Z,30.57
2022-12-11T22:28:23.561Z,30.38
2022-12-11T22:30:54.042Z,30.25
2022-12-11T22:33:24.161Z,30.06
2022-12-11T22:35:59.109Z,29.99
2022-12-11T22:38:29.169Z,30.12
2022-12-11T22:40:59.585Z,29.67
2022-12-11T22:43:29.652Z,29.75
2022-12-11T22:46:03.068Z,29.59
2022-12-11T22:48:33.323Z,29.64
2022-12-11T22:51:08.049Z,29.61
2022-12-11T22:53:38.264Z,29.54
2022-12-11T22:56:13.943Z,29.41
2022-12-11T22:58:44.048Z,29.43
2022-12-11T23:01:18.571Z,29.25
2022-12-11T23:03:49.282Z,29.23
2022-12-11T23:06:22.431Z,29.29
2022-12-11T23:08:53.540Z,29.21
2022-12-11T23:11:30.044Z,29.17
2022-12-11T23:14:00.329Z,29.09
2022-12-11T23:16:30.838Z,29.03
2022-12-11T23:19:01.345Z,28.93
2022-12-11T23:21:33.976Z,28.78
2022-12-11T23:24:03.956Z,28.77
2022-12-11T23:26:34.411Z,28.59
2022-12-11T23:29:08.634Z,28.05
2022-12-11T23:31:41.410Z,27.54
2022-12-11T23:34:11.416Z,27.26
2022-12-11T23:36:41.875Z,27.60
2022-12-11T23:39:12.412Z,27.45
2022-12-11T23:41:43.799Z,27.16
2022-12-11T23:44:14.077Z,27.52
2022-12-11T23:46:46.019Z,27.36
2022-12-11T23:49:16.080Z,27.46
2022-12-11T23:51:46.569Z,27.10
2022-12-11T23:54:16.569Z,27.11
2022-12-11T23:56:45.827Z,27.32
2022-12-11T23:59:16.752Z,27.35
